createdAt,value
2018-02-05T00:00:35.209Z,1032.84
2018-02-05T00:02:02.351Z,1032.83
2018-02-05T00:03:29.346Z,1032.83
2018-02-05T00:04:56.604Z,1032.84
2018-02-05T00:06:23.970Z,1032.85
2018-02-05T00:07:50.793Z,1032.87
2018-02-05T00:09:18.002Z,1032.90
2018-02-05T00:10:44.929Z,1032.88
2018-02-05T00:12:12.229Z,1032.87
2018-02-05T00:13:39.174Z,1032.88
2018-02-05T00:15:06.295Z,1032.89
2018-02-05T00:16:33.027Z,1032.92
2018-02-05T00:18:00.267Z,1032.94
2018-02-05T00:19:27.080Z,1032.96
2018-02-05T00:20:54.310Z,1032.98
2018-02-05T00:22:21.215Z,1032.99
2018-02-05T00:23:48.437Z,1032.99
2018-02-05T00:25:15.572Z,1033.00
2018-02-05T00:26:42.629Z,1033.02
2018-02-05T00:28:09.736Z,1033.03
2018-02-05T00:29:36.708Z,1033.03
2018-02-05T00:31:03.687Z,1033.02
2018-02-05T00:32:30.575Z,1033.04
2018-02-05T00:33:57.715Z,1033.05
2018-02-05T00:35:24.813Z,1033.05
2018-02-05T00:36:51.987Z,1033.07
2018-02-05T00:38:19.235Z,1033.09
2018-02-05T00:39:46.556Z,1033.10
2018-02-05T00:41:13.527Z,1033.11
2018-02-05T00:42:40.788Z,1033.13
2018-02-05T00:44:07.774Z,1033.13
2018-02-05T00:45:34.795Z,1033.13
2018-02-05T00:47:01.912Z,1033.13
2018-02-05T00:48:29.137Z,1033.13
2018-02-05T00:49:56.130Z,1033.18
2018-02-05T00:51:23.284Z,1033.17
2018-02-05T00:52:50.446Z,1033.18
2018-02-05T00:54:17.193Z,1033.17
2018-02-05T00:55:44.507Z,1033.18
2018-02-05T00:57:11.528Z,1033.20
2018-02-05T00:58:38.387Z,1033.21
2018-02-05T01:00:05.551Z,1033.21
2018-02-05T01:01:32.719Z,1033.22
2018-02-05T01:02:59.869Z,1033.22
2018-02-05T01:04:27.036Z,1033.21
2018-02-05T01:05:53.885Z,1033.23
2018-02-05T01:07:21.094Z,1033.24
2018-02-05T01:08:48.234Z,1033.26
2018-02-05T01:10:15.462Z,1033.28
2018-02-05T01:11:42.480Z,1033.29
2018-02-05T01:13:09.604Z,1033.30
2018-02-05T01:14:36.535Z,1033.32
2018-02-05T01:16:03.773Z,1033.32
2018-02-05T01:17:30.937Z,1033.31
2018-02-05T01:18:57.947Z,1033.30
2018-02-05T01:20:25.251Z,1033.30
2018-02-05T01:21:52.245Z,1033.33
2018-02-05T01:23:19.586Z,1033.34
2018-02-05T01:24:46.481Z,1033.33
2018-02-05T01:26:13.485Z,1033.28
2018-02-05T01:27:40.463Z,1033.31
2018-02-05T01:29:07.593Z,1033.32
2018-02-05T01:30:34.481Z,1033.38
2018-02-05T01:32:01.594Z,1033.36
2018-02-05T01:33:28.983Z,1033.34
2018-02-05T01:34:56.194Z,1033.38
2018-02-05T01:36:23.419Z,1033.39
2018-02-05T01:37:50.277Z,1033.40
2018-02-05T01:39:17.349Z,1033.39
2018-02-05T01:40:44.216Z,1033.42
2018-02-05T01:42:11.436Z,1033.44
2018-02-05T01:43:38.430Z,1033.44
2018-02-05T01:45:05.319Z,1033.47
2018-02-05T01:46:32.613Z,1033.45
2018-02-05T01:47:59.692Z,1033.46
2018-02-05T01:49:26.939Z,1033.49
2018-02-05T01:50:54.023Z,1033.52
2018-02-05T01:52:21.244Z,1033.53
2018-02-05T01:53:48.374Z,1033.54
2018-02-05T01:55:15.341Z,1033.56
2018-02-05T01:56:42.501Z,1033.59
2018-02-05T01:58:09.526Z,1033.62
2018-02-05T01:59:36.443Z,1033.64
2018-02-05T02:01:03.292Z,1033.68
2018-02-05T02:02:30.487Z,1033.68
2018-02-05T02:03:57.651Z,1033.69
2018-02-05T02:05:24.707Z,1033.71
2018-02-05T02:06:51.685Z,1033.72
2018-02-05T02:08:18.748Z,1033.75
2018-02-05T02:09:46.134Z,1033.75
2018-02-05T02:11:13.273Z,1033.73
2018-02-05T02:12:40.304Z,1033.74
2018-02-05T02:14:07.472Z,1033.76
2018-02-05T02:15:34.243Z,1033.82
2018-02-05T02:17:02.196Z,1033.84
2018-02-05T02:18:28.301Z,1033.83
2018-02-05T02:19:55.285Z,1033.83
2018-02-05T02:21:22.403Z,1033.87
2018-02-05T02:22:49.656Z,1033.90
2018-02-05T02:24:16.932Z,1033.90
2018-02-05T02:25:44.030Z,1033.94
2018-02-05T02:27:11.264Z,1033.95
2018-02-05T02:28:38.490Z,1033.97
2018-02-05T02:30:05.288Z,1033.97
2018-02-05T02:31:32.486Z,1034.00
2018-02-05T02:32:59.602Z,1033.99
2018-02-05T02:34:26.669Z,1034.00
2018-02-05T02:35:53.744Z,1033.99
2018-02-05T02:37:20.654Z,1033.99
2018-02-05T02:38:47.874Z,1033.98
2018-02-05T02:40:15.036Z,1033.99
2018-02-05T02:41:42.133Z,1034.03
2018-02-05T02:43:09.207Z,1034.03
2018-02-05T02:44:36.244Z,1034.04
2018-02-05T02:46:03.029Z,1034.07
2018-02-05T02:47:30.035Z,1034.05
2018-02-05T02:48:57.081Z,1034.04
2018-02-05T02:50:24.174Z,1034.04
2018-02-05T02:51:51.259Z,1034.06
2018-02-05T02:53:18.253Z,1034.05
2018-02-05T02:54:45.369Z,1034.05
2018-02-05T02:56:12.571Z,1034.04
2018-02-05T02:57:39.671Z,1034.04
2018-02-05T02:59:06.767Z,1034.07
2018-02-05T03:00:33.750Z,1034.07
2018-02-05T03:02:00.904Z,1034.08
2018-02-05T03:03:27.910Z,1034.06
2018-02-05T03:04:55.010Z,1034.08
2018-02-05T03:06:21.951Z,1034.09
2018-02-05T03:07:49.119Z,1034.15
2018-02-05T03:09:16.307Z,1034.12
2018-02-05T03:10:43.251Z,1034.13
2018-02-05T03:12:10.507Z,1034.11
2018-02-05T03:13:37.666Z,1034.13
2018-02-05T03:15:04.485Z,1034.19
2018-02-05T03:16:31.552Z,1034.21
2018-02-05T03:17:58.517Z,1034.22
2018-02-05T03:19:25.714Z,1034.23
2018-02-05T03:20:52.861Z,1034.23
2018-02-05T03:22:19.963Z,1034.24
2018-02-05T03:23:47.253Z,1034.24
2018-02-05T03:25:14.232Z,1034.24
2018-02-05T03:26:41.200Z,1034.25
2018-02-05T03:28:08.382Z,1034.26
2018-02-05T03:29:35.403Z,1034.25
2018-02-05T03:31:02.580Z,1034.30
2018-02-05T03:32:29.827Z,1034.32
2018-02-05T03:33:56.902Z,1034.32
2018-02-05T03:35:23.879Z,1034.30
2018-02-05T03:36:51.151Z,1034.32
2018-02-05T03:38:18.237Z,1034.32
2018-02-05T03:39:45.325Z,1034.36
2018-02-05T03:41:12.633Z,1034.37
2018-02-05T03:42:39.585Z,1034.39
2018-02-05T03:44:06.639Z,1034.40
2018-02-05T03:45:33.690Z,1034.40
2018-02-05T03:47:00.688Z,1034.40
2018-02-05T03:48:27.692Z,1034.42
2018-02-05T03:49:54.954Z,1034.45
2018-02-05T03:51:22.101Z,1034.43
2018-02-05T03:52:49.276Z,1034.44
2018-02-05T03:54:16.377Z,1034.46
2018-02-05T03:55:43.564Z,1034.44
2018-02-05T03:57:10.659Z,1034.46
2018-02-05T03:58:37.818Z,1034.49
2018-02-05T04:00:04.686Z,1034.51
2018-02-05T04:01:31.955Z,1034.50
2018-02-05T04:02:59.258Z,1034.53
2018-02-05T04:04:26.299Z,1034.55
2018-02-05T04:05:53.490Z,1034.56
2018-02-05T04:07:20.332Z,1034.58
2018-02-05T04:08:47.421Z,1034.58
2018-02-05T04:10:14.501Z,1034.58
2018-02-05T04:11:41.390Z,1034.60
2018-02-05T04:13:08.699Z,1034.61
2018-02-05T04:14:35.608Z,1034.60
2018-02-05T04:16:02.588Z,1034.59
2018-02-05T04:17:29.365Z,1034.58
2018-02-05T04:18:56.743Z,1034.60
2018-02-05T04:20:23.539Z,1034.60
2018-02-05T04:21:50.878Z,1034.59
2018-02-05T04:23:17.813Z,1034.61
2018-02-05T04:24:44.832Z,1034.61
2018-02-05T04:26:12.018Z,1034.62
2018-02-05T04:27:39.092Z,1034.63
2018-02-05T04:29:06.041Z,1034.62
2018-02-05T04:30:32.985Z,1034.63
2018-02-05T04:32:00.039Z,1034.63
2018-02-05T04:33:26.926Z,1034.68
2018-02-05T04:34:54.158Z,1034.69
2018-02-05T04:36:20.977Z,1034.64
2018-02-05T04:37:48.195Z,1034.66
2018-02-05T04:39:15.047Z,1034.65
2018-02-05T04:40:42.364Z,1034.68
2018-02-05T04:42:09.525Z,1034.67
2018-02-05T04:43:36.572Z,1034.65
2018-02-05T04:45:03.516Z,1034.64
2018-02-05T04:46:30.568Z,1034.63
2018-02-05T04:47:57.662Z,1034.61
2018-02-05T04:49:24.788Z,1034.63
2018-02-05T04:50:51.890Z,1034.66
2018-02-05T04:52:18.873Z,1034.66
2018-02-05T04:53:45.763Z,1034.65
2018-02-05T04:55:12.872Z,1034.63
2018-02-05T04:56:39.928Z,1034.61
2018-02-05T04:58:06.953Z,1034.65
2018-02-05T04:59:33.767Z,1034.68
2018-02-05T05:01:00.788Z,1034.67
2018-02-05T05:02:27.673Z,1034.69
2018-02-05T05:03:54.603Z,1034.70
2018-02-05T05:05:21.344Z,1034.71
2018-02-05T05:06:48.424Z,1034.71
2018-02-05T05:08:15.187Z,1034.74
2018-02-05T05:09:42.322Z,1034.75
2018-02-05T05:11:09.326Z,1034.74
2018-02-05T05:12:36.331Z,1034.74
2018-02-05T05:14:03.567Z,1034.71
2018-02-05T05:15:30.256Z,1034.75
2018-02-05T05:16:57.449Z,1034.77
2018-02-05T05:18:24.564Z,1034.77
2018-02-05T05:19:51.396Z,1034.79
2018-02-05T05:21:18.450Z,1034.81
2018-02-05T05:22:45.452Z,1034.85
2018-02-05T05:24:12.770Z,1034.85
2018-02-05T05:25:39.669Z,1034.85
2018-02-05T05:27:06.741Z,1034.87
2018-02-05T05:28:33.672Z,1034.87
2018-02-05T05:30:00.680Z,1034.86
2018-02-05T05:31:27.647Z,1034.85
2018-02-05T05:32:54.751Z,1034.84
2018-02-05T05:34:21.921Z,1034.87
2018-02-05T05:35:49.049Z,1034.90
2018-02-05T05:37:16.132Z,1034.90
2018-02-05T05:38:43.014Z,1034.87
2018-02-05T05:40:09.945Z,1034.86
2018-02-05T05:41:36.988Z,1034.88
2018-02-05T05:43:03.777Z,1034.90
2018-02-05T05:44:30.979Z,1034.91
2018-02-05T05:45:57.674Z,1034.90
2018-02-05T05:47:24.741Z,1034.93
2018-02-05T05:48:51.803Z,1034.96
2018-02-05T05:50:19.184Z,1034.97
2018-02-05T05:51:46.293Z,1034.98
2018-02-05T05:53:13.235Z,1035.00
2018-02-05T05:54:40.368Z,1035.00
2018-02-05T05:56:07.430Z,1034.99
2018-02-05T05:57:34.207Z,1034.99
2018-02-05T05:59:01.440Z,1034.99
2018-02-05T06:00:28.515Z,1035.01
2018-02-05T06:01:55.287Z,1035.04
2018-02-05T06:03:22.372Z,1035.07
2018-02-05T06:04:49.579Z,1035.08
2018-02-05T06:06:16.547Z,1035.08
2018-02-05T06:07:43.546Z,1035.08
2018-02-05T06:09:10.563Z,1035.10
2018-02-05T06:10:37.443Z,1035.12
2018-02-05T06:12:04.398Z,1035.10
2018-02-05T06:13:31.595Z,1035.10
2018-02-05T06:14:58.491Z,1035.11
2018-02-05T06:16:25.489Z,1035.11
2018-02-05T06:17:52.498Z,1035.12
2018-02-05T06:19:19.761Z,1035.13
2018-02-05T06:20:46.900Z,1035.13
2018-02-05T06:22:14.071Z,1035.14
2018-02-05T06:23:41.126Z,1035.16
2018-02-05T06:25:07.935Z,1035.18
2018-02-05T06:26:34.761Z,1035.20
2018-02-05T06:28:01.705Z,1035.19
2018-02-05T06:29:28.925Z,1035.19
2018-02-05T06:30:55.896Z,1035.22
2018-02-05T06:32:23.057Z,1035.21
2018-02-05T06:33:50.276Z,1035.23
2018-02-05T06:35:17.489Z,1035.22
2018-02-05T06:36:44.365Z,1035.23
2018-02-05T06:38:11.509Z,1035.23
2018-02-05T06:39:38.563Z,1035.23
2018-02-05T06:41:05.438Z,1035.23
2018-02-05T06:42:32.522Z,1035.22
2018-02-05T06:43:59.489Z,1035.21
2018-02-05T06:45:26.593Z,1035.23
2018-02-05T06:46:53.638Z,1035.26
2018-02-05T06:48:20.720Z,1035.29
2018-02-05T06:49:47.954Z,1035.28
2018-02-05T06:51:15.087Z,1035.30
2018-02-05T06:52:42.179Z,1035.31
2018-02-05T06:54:09.382Z,1035.32
2018-02-05T06:55:36.406Z,1035.31
2018-02-05T06:57:03.075Z,1035.32
2018-02-05T06:58:30.023Z,1035.34
2018-02-05T06:59:57.005Z,1035.36
2018-02-05T07:01:23.957Z,1035.38
2018-02-05T07:02:51.173Z,1035.39
2018-02-05T07:04:18.272Z,1035.39
2018-02-05T07:05:45.363Z,1035.41
2018-02-05T07:07:12.281Z,1035.39
2018-02-05T07:08:39.327Z,1035.38
2018-02-05T07:10:06.427Z,1035.42
2018-02-05T07:11:33.567Z,1035.45
2018-02-05T07:13:00.498Z,1035.45
2018-02-05T07:14:27.476Z,1035.44
2018-02-05T07:15:54.714Z,1035.43
2018-02-05T07:17:21.544Z,1035.45
2018-02-05T07:18:48.774Z,1035.46
2018-02-05T07:20:15.961Z,1035.44
2018-02-05T07:21:42.922Z,1035.46
2018-02-05T07:23:10.160Z,1035.47
2018-02-05T07:24:37.082Z,1035.47
2018-02-05T07:26:04.333Z,1035.48
2018-02-05T07:27:31.267Z,1035.48
2018-02-05T07:28:58.511Z,1035.49
2018-02-05T07:30:25.523Z,1035.48
2018-02-05T07:31:52.517Z,1035.50
2018-02-05T07:33:19.664Z,1035.51
2018-02-05T07:34:46.665Z,1035.56
2018-02-05T07:36:13.556Z,1035.54
2018-02-05T07:37:40.733Z,1035.56
2018-02-05T07:39:07.689Z,1035.56
2018-02-05T07:40:34.862Z,1035.55
2018-02-05T07:42:01.864Z,1035.54
2018-02-05T07:43:28.689Z,1035.52
2018-02-05T07:44:55.730Z,1035.50
2018-02-05T07:46:22.914Z,1035.48
2018-02-05T07:47:50.003Z,1035.46
2018-02-05T07:49:17.110Z,1035.41
2018-02-05T07:50:44.202Z,1035.40
2018-02-05T07:52:11.368Z,1035.39
2018-02-05T07:53:38.424Z,1035.40
2018-02-05T07:55:05.301Z,1035.38
2018-02-05T07:56:32.427Z,1035.40
2018-02-05T07:57:59.519Z,1035.39
2018-02-05T07:59:26.670Z,1035.40
2018-02-05T08:00:53.822Z,1035.43
2018-02-05T08:02:20.992Z,1035.41
2018-02-05T08:03:48.025Z,1035.44
2018-02-05T08:05:15.037Z,1035.47
2018-02-05T08:06:41.935Z,1035.53
2018-02-05T08:08:08.761Z,1035.53
2018-02-05T08:09:35.906Z,1035.48
2018-02-05T08:11:02.707Z,1035.47
2018-02-05T08:12:29.884Z,1035.47
2018-02-05T08:13:56.965Z,1035.49
2018-02-05T08:15:23.771Z,1035.52
2018-02-05T08:16:50.431Z,1035.51
2018-02-05T08:18:17.650Z,1035.54
2018-02-05T08:19:44.618Z,1035.53
2018-02-05T08:21:11.826Z,1035.52
2018-02-05T08:22:39.035Z,1035.52
2018-02-05T08:24:05.847Z,1035.52
2018-02-05T08:25:32.869Z,1035.51
2018-02-05T08:26:59.760Z,1035.51
2018-02-05T08:28:26.822Z,1035.52
2018-02-05T08:29:53.896Z,1035.52
2018-02-05T08:31:20.892Z,1035.52
2018-02-05T08:32:48.034Z,1035.49
2018-02-05T08:34:14.927Z,1035.52
2018-02-05T08:35:41.970Z,1035.52
2018-02-05T08:37:09.180Z,1035.53
2018-02-05T08:38:35.966Z,1035.56
2018-02-05T08:40:03.218Z,1035.58
2018-02-05T08:41:30.259Z,1035.62
2018-02-05T08:42:57.465Z,1035.63
2018-02-05T08:44:24.410Z,1035.59
2018-02-05T08:45:51.465Z,1035.59
2018-02-05T08:47:18.405Z,1035.58
2018-02-05T08:48:45.490Z,1035.57
2018-02-05T08:50:12.519Z,1035.58
2018-02-05T08:51:39.877Z,1035.54
2018-02-05T08:53:06.872Z,1035.53
2018-02-05T08:54:33.877Z,1035.53
2018-02-05T08:56:00.882Z,1035.54
2018-02-05T08:57:28.043Z,1035.53
2018-02-05T08:58:54.926Z,1035.54
2018-02-05T09:00:22.126Z,1035.53
2018-02-05T09:01:49.338Z,1035.54
2018-02-05T09:03:16.715Z,1035.55
2018-02-05T09:04:43.750Z,1035.57
2018-02-05T09:06:10.982Z,1035.58
2018-02-05T09:07:38.195Z,1035.60
2018-02-05T09:09:05.227Z,1035.59
2018-02-05T09:10:32.163Z,1035.61
2018-02-05T09:11:59.300Z,1035.61
2018-02-05T09:13:26.464Z,1035.59
2018-02-05T09:14:53.502Z,1035.61
2018-02-05T09:16:20.526Z,1035.59
2018-02-05T09:17:47.660Z,1035.61
2018-02-05T09:19:14.821Z,1035.61
2018-02-05T09:20:41.914Z,1035.61
2018-02-05T09:22:08.979Z,1035.58
2018-02-05T09:23:35.888Z,1035.60
2018-02-05T09:25:03.063Z,1035.59
2018-02-05T09:26:30.237Z,1035.61
2018-02-05T09:27:57.405Z,1035.60
2018-02-05T09:29:24.521Z,1035.58
2018-02-05T09:30:51.583Z,1035.58
2018-02-05T09:32:18.864Z,1035.60
2018-02-05T09:33:46.158Z,1035.62
2018-02-05T09:35:13.484Z,1035.57
2018-02-05T09:36:40.195Z,1035.61
2018-02-05T09:38:07.429Z,1035.60
2018-02-05T09:39:34.397Z,1035.60
2018-02-05T09:41:01.201Z,1035.60
2018-02-05T09:42:28.246Z,1035.62
2018-02-05T09:43:55.282Z,1035.60
2018-02-05T09:45:22.332Z,1035.59
2018-02-05T09:46:49.248Z,1035.62
2018-02-05T09:48:16.285Z,1035.60
2018-02-05T09:49:43.277Z,1035.61
2018-02-05T09:51:10.442Z,1035.60
2018-02-05T09:52:37.315Z,1035.60
2018-02-05T09:54:04.209Z,1035.57
2018-02-05T09:55:31.038Z,1035.57
2018-02-05T09:56:58.347Z,1035.59
2018-02-05T09:58:25.239Z,1035.58
2018-02-05T09:59:52.341Z,1035.59
2018-02-05T10:01:19.391Z,1035.58
2018-02-05T10:02:46.483Z,1035.59
2018-02-05T10:04:13.773Z,1035.58
2018-02-05T10:05:40.633Z,1035.58
2018-02-05T10:07:07.614Z,1035.59
2018-02-05T10:08:34.546Z,1035.58
2018-02-05T10:10:01.681Z,1035.57
2018-02-05T10:11:28.872Z,1035.57
2018-02-05T10:12:55.904Z,1035.56
2018-02-05T10:14:23.099Z,1035.57
2018-02-05T10:15:50.394Z,1035.57
2018-02-05T10:17:17.268Z,1035.59
2018-02-05T10:18:44.063Z,1035.55
2018-02-05T10:20:11.215Z,1035.52
2018-02-05T10:21:38.284Z,1035.49
2018-02-05T10:23:05.269Z,1035.50
2018-02-05T10:24:32.319Z,1035.47
2018-02-05T10:25:59.474Z,1035.43
2018-02-05T10:27:26.492Z,1035.42
2018-02-05T10:28:53.508Z,1035.39
2018-02-05T10:30:20.685Z,1035.38
2018-02-05T10:31:47.601Z,1035.34
2018-02-05T10:33:14.342Z,1035.34
2018-02-05T10:34:41.462Z,1035.32
2018-02-05T10:36:08.508Z,1035.28
2018-02-05T10:37:35.173Z,1035.26
2018-02-05T10:39:02.091Z,1035.26
2018-02-05T10:40:29.049Z,1035.24
2018-02-05T10:41:56.221Z,1035.24
2018-02-05T10:43:23.488Z,1035.27
2018-02-05T10:44:50.552Z,1035.26
2018-02-05T10:46:17.191Z,1035.25
2018-02-05T10:47:44.343Z,1035.26
2018-02-05T10:49:11.569Z,1035.26
2018-02-05T10:50:38.629Z,1035.25
2018-02-05T10:52:05.784Z,1035.22
2018-02-05T10:53:33.029Z,1035.20
2018-02-05T10:55:00.194Z,1035.17
2018-02-05T10:56:27.401Z,1035.16
2018-02-05T10:57:54.465Z,1035.14
2018-02-05T10:59:21.699Z,1035.15
2018-02-05T11:00:48.714Z,1035.16
2018-02-05T11:02:15.973Z,1035.13
2018-02-05T11:03:42.992Z,1035.19
2018-02-05T11:05:10.106Z,1035.19
2018-02-05T11:06:37.351Z,1035.18
2018-02-05T11:08:04.324Z,1035.16
2018-02-05T11:09:31.577Z,1035.19
2018-02-05T11:10:58.768Z,1035.17
2018-02-05T11:12:25.912Z,1035.15
2018-02-05T11:13:52.961Z,1035.16
2018-02-05T11:15:19.875Z,1035.13
2018-02-05T11:16:46.978Z,1035.09
2018-02-05T11:18:13.908Z,1035.09
2018-02-05T11:19:41.029Z,1035.11
2018-02-05T11:21:08.142Z,1035.12
2018-02-05T11:22:35.165Z,1035.10
2018-02-05T11:24:02.128Z,1035.10
2018-02-05T11:25:29.164Z,1035.07
2018-02-05T11:26:56.399Z,1035.05
2018-02-05T11:28:23.299Z,1035.04
2018-02-05T11:29:50.643Z,1034.99
2018-02-05T11:31:17.792Z,1034.95
2018-02-05T11:32:44.857Z,1034.97
2018-02-05T11:34:11.883Z,1034.96
2018-02-05T11:35:38.994Z,1034.95
2018-02-05T11:37:06.156Z,1034.90
2018-02-05T11:38:33.323Z,1034.87
2018-02-05T11:40:00.357Z,1034.88
2018-02-05T11:41:27.410Z,1034.88
2018-02-05T11:42:54.409Z,1034.87
2018-02-05T11:44:21.787Z,1034.85
2018-02-05T11:45:48.804Z,1034.84
2018-02-05T11:47:16.190Z,1034.86
2018-02-05T11:48:43.222Z,1034.87
2018-02-05T11:50:10.176Z,1034.85
2018-02-05T11:51:37.186Z,1034.84
2018-02-05T11:53:04.021Z,1034.83
2018-02-05T11:54:31.151Z,1034.82
2018-02-05T11:55:58.132Z,1034.84
2018-02-05T11:57:25.311Z,1034.84
2018-02-05T11:58:52.432Z,1034.82
2018-02-05T12:00:19.453Z,1034.81
2018-02-05T12:01:46.634Z,1034.85
2018-02-05T12:03:13.785Z,1034.84
2018-02-05T12:04:40.870Z,1034.83
2018-02-05T12:06:07.984Z,1034.80
2018-02-05T12:07:34.881Z,1034.82
2018-02-05T12:09:02.047Z,1034.80
2018-02-05T12:10:29.344Z,1034.81
2018-02-05T12:11:56.437Z,1034.79
2018-02-05T12:13:23.483Z,1034.77
2018-02-05T12:14:50.748Z,1034.74
2018-02-05T12:16:17.869Z,1034.74
2018-02-05T12:17:44.911Z,1034.75
2018-02-05T12:19:12.090Z,1034.70
2018-02-05T12:20:39.256Z,1034.69
2018-02-05T12:22:06.464Z,1034.67
2018-02-05T12:23:33.306Z,1034.64
2018-02-05T12:25:00.477Z,1034.64
2018-02-05T12:26:27.545Z,1034.62
2018-02-05T12:27:54.688Z,1034.61
2018-02-05T12:29:21.832Z,1034.60
2018-02-05T12:30:48.989Z,1034.56
2018-02-05T12:32:16.109Z,1034.56
2018-02-05T12:33:43.308Z,1034.60
2018-02-05T12:35:10.452Z,1034.55
2018-02-05T12:36:37.562Z,1034.57
2018-02-05T12:38:04.498Z,1034.55
2018-02-05T12:39:31.780Z,1034.54
2018-02-05T12:40:58.791Z,1034.55
2018-02-05T12:42:25.918Z,1034.54
2018-02-05T12:43:53.141Z,1034.52
2018-02-05T12:45:20.321Z,1034.50
2018-02-05T12:46:47.471Z,1034.50
2018-02-05T12:48:14.633Z,1034.52
2018-02-05T12:49:41.650Z,1034.49
2018-02-05T12:51:08.963Z,1034.45
2018-02-05T12:52:36.110Z,1034.41
2018-02-05T12:54:03.248Z,1034.40
2018-02-05T12:55:30.311Z,1034.35
2018-02-05T12:56:57.482Z,1034.33
2018-02-05T12:58:24.539Z,1034.30
2018-02-05T12:59:51.659Z,1034.27
2018-02-05T13:01:18.935Z,1034.28
2018-02-05T13:02:45.956Z,1034.22
2018-02-05T13:04:13.127Z,1034.17
2018-02-05T13:05:40.431Z,1034.14
2018-02-05T13:07:07.557Z,1034.12
2018-02-05T13:08:34.442Z,1034.10
2018-02-05T13:10:02.406Z,1034.09
2018-02-05T13:11:28.607Z,1034.05
2018-02-05T13:12:55.796Z,1034.06
2018-02-05T13:14:22.845Z,1034.01
2018-02-05T13:15:50.064Z,1034.00
2018-02-05T13:17:17.167Z,1033.97
2018-02-05T13:18:44.071Z,1033.93
2018-02-05T13:20:11.027Z,1033.92
2018-02-05T13:21:38.207Z,1033.89
2018-02-05T13:23:05.156Z,1033.87
2018-02-05T13:24:32.176Z,1033.86
2018-02-05T13:25:59.405Z,1033.84
2018-02-05T13:27:26.713Z,1033.87
2018-02-05T13:28:53.867Z,1033.86
2018-02-05T13:30:21.003Z,1033.82
2018-02-05T13:31:48.239Z,1033.81
2018-02-05T13:33:15.319Z,1033.80
2018-02-05T13:34:42.247Z,1033.78
2018-02-05T13:36:09.206Z,1033.80
2018-02-05T13:37:36.416Z,1033.79
2018-02-05T13:39:03.330Z,1033.76
2018-02-05T13:40:30.454Z,1033.77
2018-02-05T13:41:57.775Z,1033.72
2018-02-05T13:43:24.959Z,1033.72
2018-02-05T13:44:52.057Z,1033.69
2018-02-05T13:46:19.346Z,1033.66
2018-02-05T13:47:46.596Z,1033.64
2018-02-05T13:49:13.719Z,1033.61
2018-02-05T13:50:40.605Z,1033.62
2018-02-05T13:52:08.047Z,1033.61
2018-02-05T13:53:34.901Z,1033.59
2018-02-05T13:55:01.975Z,1033.58
2018-02-05T13:56:29.004Z,1033.57
2018-02-05T13:57:56.255Z,1033.60
2018-02-05T13:59:23.632Z,1033.60
2018-02-05T14:00:50.775Z,1033.63
2018-02-05T14:02:17.936Z,1033.64
2018-02-05T14:03:45.155Z,1033.65
2018-02-05T14:05:12.173Z,1033.65
2018-02-05T14:06:39.160Z,1033.63
2018-02-05T14:08:06.394Z,1033.63
2018-02-05T14:09:33.438Z,1033.61
2018-02-05T14:11:00.773Z,1033.59
2018-02-05T14:12:28.985Z,1033.60
2018-02-05T14:13:54.998Z,1033.58
2018-02-05T14:15:22.039Z,1033.58
2018-02-05T14:16:49.012Z,1033.54
2018-02-05T14:18:16.410Z,1033.52
2018-02-05T14:19:43.679Z,1033.52
2018-02-05T14:21:10.752Z,1033.52
2018-02-05T14:22:37.938Z,1033.50
2018-02-05T14:24:05.000Z,1033.49
2018-02-05T14:25:32.218Z,1033.50
2018-02-05T14:26:59.201Z,1033.48
2018-02-05T14:28:26.330Z,1033.47
2018-02-05T14:29:53.521Z,1033.45
2018-02-05T14:31:20.662Z,1033.44
2018-02-05T14:32:47.830Z,1033.45
2018-02-05T14:34:14.990Z,1033.45
2018-02-05T14:35:42.176Z,1033.43
2018-02-05T14:37:09.287Z,1033.41
2018-02-05T14:38:36.292Z,1033.43
2018-02-05T14:40:03.700Z,1033.38
2018-02-05T14:41:30.526Z,1033.39
2018-02-05T14:42:57.599Z,1033.41
2018-02-05T14:44:24.849Z,1033.34
2018-02-05T14:45:52.057Z,1033.36
2018-02-05T14:47:19.179Z,1033.36
2018-02-05T14:48:46.285Z,1033.35
2018-02-05T14:50:13.243Z,1033.35
2018-02-05T14:51:40.648Z,1033.34
2018-02-05T14:53:07.797Z,1033.32
2018-02-05T14:54:34.815Z,1033.32
2018-02-05T14:56:01.850Z,1033.31
2018-02-05T14:57:29.047Z,1033.28
2018-02-05T14:58:56.228Z,1033.25
2018-02-05T15:00:23.466Z,1033.24
2018-02-05T15:01:50.515Z,1033.23
2018-02-05T15:03:17.691Z,1033.23
2018-02-05T15:04:44.911Z,1033.21
2018-02-05T15:06:12.029Z,1033.19
2018-02-05T15:07:38.936Z,1033.19
2018-02-05T15:09:06.177Z,1033.17
2018-02-05T15:10:33.191Z,1033.17
2018-02-05T15:12:00.318Z,1033.19
2018-02-05T15:13:27.457Z,1033.18
2018-02-05T15:14:54.683Z,1033.14
2018-02-05T15:16:21.966Z,1033.11
2018-02-05T15:17:48.955Z,1033.06
2018-02-05T15:19:16.197Z,1033.08
2018-02-05T15:20:43.414Z,1033.07
2018-02-05T15:22:10.291Z,1033.08
2018-02-05T15:23:37.537Z,1033.09
2018-02-05T15:25:04.606Z,1033.11
2018-02-05T15:26:31.719Z,1033.10
2018-02-05T15:27:58.972Z,1033.11
2018-02-05T15:29:26.078Z,1033.10
2018-02-05T15:30:53.089Z,1033.08
2018-02-05T15:32:20.452Z,1033.06
2018-02-05T15:33:47.546Z,1033.01
2018-02-05T15:35:14.780Z,1033.02
2018-02-05T15:36:41.893Z,1033.02
2018-02-05T15:38:08.795Z,1032.97
2018-02-05T15:39:35.875Z,1032.97
2018-02-05T15:41:03.176Z,1032.96
2018-02-05T15:42:30.302Z,1032.98
2018-02-05T15:43:57.363Z,1032.99
2018-02-05T15:45:24.483Z,1032.98
2018-02-05T15:46:51.636Z,1032.99
2018-02-05T15:48:18.667Z,1033.00
2018-02-05T15:49:45.837Z,1033.00
2018-02-05T15:51:12.974Z,1033.00
2018-02-05T15:52:40.145Z,1032.98
2018-02-05T15:54:07.299Z,1032.98
2018-02-05T15:55:34.222Z,1032.98
2018-02-05T15:57:02.397Z,1032.99
2018-02-05T15:58:28.406Z,1032.98
2018-02-05T15:59:55.547Z,1032.92
2018-02-05T16:01:22.720Z,1032.91
2018-02-05T16:02:49.753Z,1032.90
2018-02-05T16:04:16.911Z,1032.91
2018-02-05T16:05:44.002Z,1032.90
2018-02-05T16:07:11.063Z,1032.91
2018-02-05T16:08:38.164Z,1032.90
2018-02-05T16:10:05.113Z,1032.91
2018-02-05T16:11:32.149Z,1032.89
2018-02-05T16:12:59.292Z,1032.89
2018-02-05T16:14:26.747Z,1032.88
2018-02-05T16:15:53.517Z,1032.84
2018-02-05T16:17:20.648Z,1032.82
2018-02-05T16:18:47.884Z,1032.82
2018-02-05T16:20:14.895Z,1032.83
2018-02-05T16:21:42.130Z,1032.83
2018-02-05T16:23:09.185Z,1032.83
2018-02-05T16:24:36.318Z,1032.79
2018-02-05T16:26:03.545Z,1032.77
2018-02-05T16:27:30.460Z,1032.80
2018-02-05T16:28:57.793Z,1032.81
2018-02-05T16:30:24.766Z,1032.80
2018-02-05T16:31:52.029Z,1032.79
2018-02-05T16:33:19.091Z,1032.79
2018-02-05T16:34:46.448Z,1032.77
2018-02-05T16:36:13.562Z,1032.79
2018-02-05T16:37:40.746Z,1032.80
2018-02-05T16:39:07.911Z,1032.83
2018-02-05T16:40:34.723Z,1032.83
2018-02-05T16:42:01.901Z,1032.82
2018-02-05T16:43:29.102Z,1032.82
2018-02-05T16:44:56.166Z,1032.80
2018-02-05T16:46:23.256Z,1032.78
2018-02-05T16:47:50.495Z,1032.78
2018-02-05T16:49:17.370Z,1032.76
2018-02-05T16:50:44.637Z,1032.78
2018-02-05T16:52:11.817Z,1032.79
2018-02-05T16:53:38.989Z,1032.78
2018-02-05T16:55:05.674Z,1032.77
2018-02-05T16:56:32.899Z,1032.75
2018-02-05T16:58:00.196Z,1032.73
2018-02-05T16:59:27.434Z,1032.72
2018-02-05T17:00:54.720Z,1032.70
2018-02-05T17:02:21.695Z,1032.67
2018-02-05T17:03:48.614Z,1032.68
2018-02-05T17:05:15.783Z,1032.68
2018-02-05T17:06:43.033Z,1032.69
2018-02-05T17:08:09.889Z,1032.73
2018-02-05T17:09:36.999Z,1032.74
2018-02-05T17:11:03.987Z,1032.72
2018-02-05T17:12:31.174Z,1032.70
2018-02-05T17:13:58.139Z,1032.71
2018-02-05T17:15:25.228Z,1032.70
2018-02-05T17:16:52.394Z,1032.67
2018-02-05T17:18:19.458Z,1032.68
2018-02-05T17:19:45.239Z,1032.67
2018-02-05T17:21:12.441Z,1032.65
2018-02-05T17:22:39.491Z,1032.64
2018-02-05T17:24:06.540Z,1032.65
2018-02-05T17:25:33.484Z,1032.62
2018-02-05T17:27:00.656Z,1032.63
2018-02-05T17:28:27.604Z,1032.61
2018-02-05T17:29:54.718Z,1032.58
2018-02-05T17:31:21.869Z,1032.59
2018-02-05T17:32:49.050Z,1032.56